Time;durP1;ratioP1;P1;durP2;ratioP2;P2;SDS_P1;SDS_P2;PMS_P1;PMS_P2;Temp;Humidity;BMP_temperature;BMP_pressure;BME280_temperature;BME280_humidity;BME280_pressure;Samples;Min_cycle;Max_cycle;Signal;HPM_P1;HPM_P2
2023/11/16 00:00:12;;;;;;;6.10;1.60;;;;;;;12.80;55.95;97751.75;4988172;28;20248;-72
2023/11/16 00:02:38;;;;;;;5.17;1.80;;;;;;;12.82;56.01;97755.06;5023418;23;21236;-68
2023/11/16 00:05:04;;;;;;;4.00;1.70;;;;;;;12.79;56.22;97750.91;4971640;28;20991;-69
2023/11/16 00:07:33;;;;;;;2.53;1.50;;;;;;;12.73;56.57;97752.34;5033623;22;20437;-69
2023/11/16 00:09:58;;;;;;;7.00;1.97;;;;;;;12.73;56.56;97741.81;4964374;28;20832;-70
2023/11/16 00:12:24;;;;;;;6.20;1.63;;;;;;;12.69;56.46;97740.50;4993284;28;20459;-70
2023/11/16 00:14:49;;;;;;;5.20;1.80;;;;;;;12.69;56.57;97737.03;5091018;22;20613;-70
2023/11/16 00:17:15;;;;;;;7.33;2.10;;;;;;;12.64;56.83;97728.78;5016401;28;20191;-71
2023/11/16 00:19:41;;;;;;;5.77;2.20;;;;;;;12.66;56.84;97732.91;5028787;28;20298;-70
2023/11/16 00:22:07;;;;;;;6.10;2.07;;;;;;;12.66;56.95;97727.63;5021971;28;20191;-69
2023/11/16 00:24:33;;;;;;;4.20;2.00;;;;;;;12.66;56.91;97729.47;5017710;28;20450;-69
2023/11/16 00:26:58;;;;;;;6.03;1.90;;;;;;;12.58;56.88;97730.22;5020005;28;20434;-70
2023/11/16 00:29:24;;;;;;;5.80;1.77;;;;;;;12.55;57.00;97726.06;5021202;28;20242;-69
2023/11/16 00:31:49;;;;;;;9.10;2.10;;;;;;;12.48;57.36;97735.56;5029029;28;20211;-69
2023/11/16 00:34:15;;;;;;;4.07;1.80;;;;;;;12.51;57.13;97731.78;5028714;28;20223;-69
2023/11/16 00:36:40;;;;;;;4.10;1.80;;;;;;;12.42;57.39;97736.13;5027498;28;20191;-69
2023/11/16 00:39:07;;;;;;;4.87;1.80;;;;;;;12.44;57.49;97742.06;5028250;28;20302;-69
2023/11/16 00:41:34;;;;;;;6.67;2.07;;;;;;;12.37;57.51;97739.22;5029126;28;20242;-69
2023/11/16 00:44:02;;;;;;;3.33;1.60;;;;;;;12.44;57.74;97740.28;5023615;28;20801;-70
2023/11/16 00:46:28;;;;;;;6.23;1.90;;;;;;;12.53;57.07;97732.47;5026835;28;20474;-70
2023/11/16 00:48:53;;;;;;;8.60;1.80;;;;;;;12.53;56.96;97735.94;5011805;28;20933;-70
2023/11/16 00:51:19;;;;;;;9.07;2.17;;;;;;;12.56;57.83;97732.16;5028943;28;20452;-71
2023/11/16 00:53:44;;;;;;;9.97;1.80;;;;;;;12.60;57.03;97731.72;5029796;28;20237;-70
2023/11/16 00:56:10;;;;;;;4.37;1.60;;;;;;;12.63;57.09;97727.94;5028526;28;20219;-71
2023/11/16 00:58:37;;;;;;;4.70;2.00;;;;;;;12.62;57.34;97723.66;5029723;28;20219;-71
2023/11/16 01:01:05;;;;;;;5.67;1.70;;;;;;;12.56;57.40;97716.41;5028584;28;20337;-71
2023/11/16 01:03:30;;;;;;;2.97;1.57;;;;;;;12.62;57.38;97718.41;5030144;28;20439;-70
2023/11/16 01:05:56;;;;;;;6.20;1.53;;;;;;;12.66;56.89;97717.13;5026444;28;20442;-71
2023/11/16 01:08:21;;;;;;;3.20;1.40;;;;;;;12.63;57.09;97717.41;5028416;28;20555;-71
2023/11/16 01:10:49;;;;;;;6.83;1.60;;;;;;;12.60;57.28;97712.50;5010932;28;20203;-72
2023/11/16 01:13:22;;;;;;;4.47;1.70;;;;;;;12.56;56.96;97708.50;5019435;28;20200;-69
2023/11/16 01:15:48;;;;;;;8.67;1.80;;;;;;;12.60;57.12;97704.59;5013429;28;20442;-69
2023/11/16 01:18:15;;;;;;;4.17;1.67;;;;;;;12.60;56.92;97708.03;5015573;28;20464;-70
2023/11/16 01:20:42;;;;;;;3.47;1.40;;;;;;;12.64;56.50;97708.56;5007716;28;20460;-70
2023/11/16 01:23:12;;;;;;;5.90;1.60;;;;;;;12.46;56.97;97716.47;4992793;28;20435;-71
2023/11/16 01:25:43;;;;;;;6.93;1.80;;;;;;;12.50;56.83;97703.84;4991705;28;20490;-69
2023/11/16 01:28:10;;;;;;;4.97;1.70;;;;;;;12.49;56.92;97704.81;5007495;28;21249;-71
2023/11/16 01:30:36;;;;;;;3.10;1.27;;;;;;;12.52;56.55;97700.09;5012427;28;21018;-70
2023/11/16 01:33:04;;;;;;;1.80;1.37;;;;;;;12.51;56.47;97698.44;5007270;28;20432;-69
2023/11/16 01:35:29;;;;;;;9.73;1.80;;;;;;;12.45;57.04;97704.31;4990374;28;20497;-70
2023/11/16 01:37:56;;;;;;;5.70;1.77;;;;;;;12.47;56.91;97701.53;5002094;28;20447;-71
2023/11/16 01:40:24;;;;;;;7.70;2.07;;;;;;;12.46;56.62;97705.97;5005957;28;20312;-70
2023/11/16 01:42:49;;;;;;;6.87;1.77;;;;;;;12.53;56.60;97706.16;4987309;28;20451;-71
2023/11/16 01:45:28;;;;;;;3.40;1.37;;;;;;;12.54;56.72;97707.81;4999832;28;20443;-71
2023/11/16 01:47:53;;;;;;;3.30;1.30;;;;;;;12.59;56.71;97706.38;5009279;28;20574;-70
2023/11/16 01:50:19;;;;;;;4.20;1.50;;;;;;;12.51;57.07;97710.75;4991885;28;20458;-70
2023/11/16 01:52:44;;;;;;;2.23;1.47;;;;;;;12.55;57.03;97706.84;5018550;28;20196;-69
2023/11/16 01:55:10;;;;;;;4.90;1.30;;;;;;;12.59;57.13;97702.94;5019960;28;20258;-69
2023/11/16 01:57:35;;;;;;;3.23;1.30;;;;;;;12.62;57.34;97709.69;5013248;28;20210;-70
2023/11/16 02:00:03;;;;;;;9.70;1.90;;;;;;;12.61;57.28;97714.13;5011822;28;20239;-70
2023/11/16 02:02:28;;;;;;;6.93;1.67;;;;;;;12.63;57.30;97714.78;5010620;28;20195;-70
2023/11/16 02:04:55;;;;;;;3.50;1.70;;;;;;;12.64;57.10;97705.94;5013524;28;20436;-72
2023/11/16 02:07:20;;;;;;;2.10;1.50;;;;;;;12.55;57.40;97707.66;5001758;28;20200;-72
2023/11/16 02:13:17;;;;;;;8.80;1.53;;;;;;;12.59;57.19;97711.66;5008222;28;20690;-69
2023/11/16 02:15:44;;;;;;;6.23;1.90;;;;;;;12.59;57.30;97708.22;5015111;28;20452;-69
2023/11/16 02:18:13;;;;;;;3.20;1.20;;;;;;;12.59;57.50;97705.56;5029415;28;20534;-69
2023/11/16 02:20:41;;;;;;;7.33;1.87;;;;;;;12.53;57.67;97706.16;4994596;28;20455;-70
2023/11/16 02:23:07;;;;;;;10.53;1.70;;;;;;;12.53;57.25;97706.16;5026915;28;20458;-71
2023/11/16 02:25:46;;;;;;;2.80;1.63;;;;;;;12.50;57.23;97707.31;5023318;28;20434;-69
2023/11/16 02:28:12;;;;;;;3.67;1.67;;;;;;;12.56;57.50;97706.69;5030066;28;20803;-70
2023/11/16 02:30:37;;;;;;;2.90;1.50;;;;;;;12.54;58.04;97697.31;5023667;28;20477;-70
2023/11/16 02:33:04;;;;;;;4.60;1.63;;;;;;;12.55;57.79;97693.69;5013018;28;20203;-70
2023/11/16 02:35:30;;;;;;;4.10;1.20;;;;;;;12.57;57.86;97686.50;5027836;28;20256;-70
2023/11/16 02:37:55;;;;;;;3.30;1.47;;;;;;;12.50;58.58;97696.78;5024804;28;20435;-71
2023/11/16 02:40:21;;;;;;;2.97;1.40;;;;;;;12.54;58.09;97697.31;5028987;28;21039;-70
2023/11/16 02:42:47;;;;;;;8.43;1.67;;;;;;;12.52;58.24;97705.38;5030576;28;20191;-69
2023/11/16 02:45:13;;;;;;;2.23;1.00;;;;;;;12.55;58.45;97704.22;5023915;28;20230;-71
2023/11/16 02:47:39;;;;;;;4.70;1.30;;;;;;;12.52;58.72;97696.63;5027172;28;20426;-71
2023/11/16 02:50:05;;;;;;;2.53;1.43;;;;;;;12.50;58.62;97688.06;5030698;28;20874;-70
2023/11/16 02:52:32;;;;;;;7.57;1.70;;;;;;;12.52;58.82;97688.75;5029709;28;20214;-69
2023/11/16 02:54:59;;;;;;;3.33;1.60;;;;;;;12.53;58.94;97687.78;5030569;28;20991;-69
2023/11/16 02:57:25;;;;;;;5.13;2.00;;;;;;;12.47;58.87;97697.09;5029952;28;20442;-70
2023/11/16 02:59:50;;;;;;;5.03;2.13;;;;;;;12.47;59.23;97693.66;5025868;28;20466;-71
2023/11/16 03:02:18;;;;;;;4.80;2.13;;;;;;;12.41;59.54;97688.00;5020546;28;20583;-69
2023/11/16 03:04:44;;;;;;;4.40;2.10;;;;;;;12.40;59.93;97683.72;5008008;28;20760;-69
2023/11/16 03:07:10;;;;;;;3.03;1.97;;;;;;;12.44;59.59;97679.84;5029832;28;20457;-68
2023/11/16 03:13:19;;;;;;;4.47;1.43;;;;;;;12.21;59.98;97666.31;5030202;28;20466;-70
2023/11/16 03:15:44;;;;;;;1.50;1.33;;;;;;;12.23;59.87;97668.78;5015472;28;20442;-70
2023/11/16 03:18:14;;;;;;;4.53;1.50;;;;;;;12.16;60.48;97667.75;5029508;28;20983;-70
2023/11/16 03:20:39;;;;;;;6.40;1.53;;;;;;;12.12;61.09;97662.78;5028848;28;20211;-70
2023/11/16 03:23:05;;;;;;;10.43;1.90;;;;;;;12.16;60.63;97658.06;5029395;28;20451;-69
2023/11/16 03:25:33;;;;;;;4.60;1.60;;;;;;;12.14;60.44;97652.97;5025884;28;20283;-69
2023/11/16 03:27:59;;;;;;;2.53;1.33;;;;;;;12.18;60.65;97650.84;5023451;28;21140;-70
2023/11/16 03:30:24;;;;;;;2.40;1.30;;;;;;;12.09;60.59;97652.63;5028428;28;20486;-69
2023/11/16 03:32:50;;;;;;;4.37;1.93;;;;;;;12.10;60.91;97648.97;5029416;28;20568;-71
2023/11/16 03:35:15;;;;;;;11.70;1.77;;;;;;;12.02;61.01;97646.28;5029304;28;20207;-71
2023/11/16 03:37:44;;;;;;;5.13;1.93;;;;;;;12.01;61.08;97633.31;5028143;28;20191;-69
2023/11/16 03:40:09;;;;;;;4.60;1.60;;;;;;;12.06;61.23;97629.25;5027602;28;20387;-69
2023/11/16 03:42:35;;;;;;;3.10;1.60;;;;;;;12.00;60.99;97624.59;5028443;28;20981;-71
2023/11/16 03:45:00;;;;;;;4.53;1.93;;;;;;;12.07;61.18;97622.19;5029350;28;20245;-71
2023/11/16 03:47:26;;;;;;;6.67;1.80;;;;;;;12.03;61.27;97621.69;5027409;28;20231;-70
2023/11/16 03:49:51;;;;;;;2.73;1.80;;;;;;;12.08;61.19;97619.44;5024458;28;20254;-70
2023/11/16 03:52:17;;;;;;;4.60;2.10;;;;;;;12.13;61.17;97616.34;5032912;28;20260;-70
2023/11/16 03:54:45;;;;;;;5.30;2.20;;;;;;;12.11;61.43;97628.81;5027391;28;20708;-71
2023/11/16 03:57:11;;;;;;;5.00;1.60;;;;;;;12.09;61.42;97631.59;5031790;28;20207;-72
2023/11/16 03:59:37;;;;;;;3.50;1.70;;;;;;;12.07;61.55;97624.81;5034829;28;20466;-70
2023/11/16 04:02:05;;;;;;;2.57;1.80;;;;;;;12.03;61.50;97621.69;5026338;28;20435;-71
2023/11/16 04:04:31;;;;;;;4.97;1.80;;;;;;;11.99;61.16;97630.81;5029538;28;20438;-71
2023/11/16 04:06:56;;;;;;;5.43;1.97;;;;;;;11.96;61.54;97631.13;5027413;28;20820;-70
2023/11/16 04:09:24;;;;;;;2.70;1.40;;;;;;;11.98;61.63;97630.00;5019943;28;20196;-70
2023/11/16 04:11:49;;;;;;;5.23;1.40;;;;;;;12.02;61.85;97635.78;5029196;28;20242;-70
2023/11/16 04:14:17;;;;;;;2.80;1.47;;;;;;;12.05;61.24;97627.59;5000636;28;20458;-71
2023/11/16 04:16:42;;;;;;;4.10;1.97;;;;;;;12.08;61.46;97634.34;5026146;28;20430;-70
2023/11/16 04:19:09;;;;;;;3.47;1.47;;;;;;;12.07;61.22;97640.59;5010817;28;20464;-70
2023/11/16 04:21:36;;;;;;;3.67;1.47;;;;;;;12.05;61.06;97624.13;5016363;28;20188;-70
2023/11/16 04:24:08;;;;;;;2.47;1.40;;;;;;;12.05;61.09;97617.09;5028393;28;20423;-69
2023/11/16 04:26:37;;;;;;;5.20;2.00;;;;;;;12.08;61.20;97615.97;5021647;28;20457;-68
2023/11/16 04:29:04;;;;;;;5.10;1.70;;;;;;;12.13;61.55;97617.16;5010924;28;20457;-70
2023/11/16 04:31:34;;;;;;;3.10;1.53;;;;;;;12.17;60.88;97611.59;5011142;28;20438;-70
2023/11/16 04:33:59;;;;;;;3.30;1.60;;;;;;;12.18;61.25;97600.13;5025651;28;20925;-71
2023/11/16 04:36:28;;;;;;;3.90;1.93;;;;;;;12.23;60.79;97605.72;5023388;28;20442;-71
2023/11/16 04:38:57;;;;;;;7.13;1.90;;;;;;;12.26;60.83;97600.16;5020418;28;20573;-71
2023/11/16 04:41:24;;;;;;;6.60;1.40;;;;;;;12.26;60.96;97598.38;5028520;28;20450;-70
2023/11/16 04:43:50;;;;;;;8.60;1.77;;;;;;;12.28;60.55;97601.69;5028383;28;20418;-69
2023/11/16 04:46:16;;;;;;;4.77;1.60;;;;;;;12.29;60.52;97599.88;5026697;28;20937;-71
2023/11/16 04:48:43;;;;;;;6.83;1.90;;;;;;;12.30;60.66;97601.53;5024250;28;20531;-70
2023/11/16 04:51:12;;;;;;;5.73;1.67;;;;;;;12.35;60.68;97601.06;5022632;28;20233;-69
2023/11/16 04:53:39;;;;;;;7.30;1.70;;;;;;;12.37;60.14;97593.84;5009721;28;20422;-70
2023/11/16 04:56:06;;;;;;;9.53;1.60;;;;;;;12.33;60.25;97593.34;5024902;28;20519;-69
2023/11/16 04:58:32;;;;;;;8.10;2.00;;;;;;;12.27;60.24;97599.19;5008578;28;20473;-71
2023/11/16 05:00:57;;;;;;;5.43;2.00;;;;;;;12.34;60.09;97592.38;5014908;28;20451;-70
2023/11/16 05:03:22;;;;;;;4.73;1.47;;;;;;;12.35;59.97;97588.72;5026664;28;20241;-70
2023/11/16 05:05:48;;;;;;;7.63;1.70;;;;;;;12.35;60.23;97599.25;5026489;28;20226;-72
2023/11/16 05:08:13;;;;;;;7.20;1.80;;;;;;;12.31;60.23;97595.28;5018936;28;20188;-70
2023/11/16 05:10:39;;;;;;;3.00;1.80;;;;;;;12.21;60.27;97586.69;5022134;28;20589;-70
2023/11/16 05:13:05;;;;;;;6.90;2.50;;;;;;;12.19;60.84;97592.06;5017110;28;20192;-71
2023/11/16 05:15:30;;;;;;;3.37;1.70;;;;;;;12.21;60.59;97591.94;5019350;28;20198;-70
2023/11/16 05:17:56;;;;;;;9.10;1.87;;;;;;;12.23;60.52;97584.69;5022252;28;20187;-70
2023/11/16 05:20:21;;;;;;;6.63;1.80;;;;;;;12.23;60.22;97574.19;5019081;28;20196;-70
2023/11/16 05:22:49;;;;;;;3.30;1.80;;;;;;;12.23;60.30;97584.69;5026962;28;21630;-71
2023/11/16 05:25:15;;;;;;;3.97;1.93;;;;;;;12.25;60.07;97577.50;5009887;28;20175;-72
2023/11/16 05:27:40;;;;;;;6.30;1.83;;;;;;;12.28;59.71;97582.44;5017325;28;20451;-70
2023/11/16 05:30:07;;;;;;;8.10;2.47;;;;;;;12.24;60.07;97581.94;5027710;28;21056;-69
2023/11/16 05:32:33;;;;;;;7.30;2.20;;;;;;;12.30;59.60;97588.38;5027140;28;20608;-67
2023/11/16 05:34:59;;;;;;;5.57;1.80;;;;;;;12.28;59.69;97582.44;5027514;28;20842;-68
2023/11/16 05:37:24;;;;;;;4.07;1.93;;;;;;;12.32;59.48;97575.91;5026313;28;20468;-71
2023/11/16 05:39:50;;;;;;;5.03;1.70;;;;;;;12.28;59.59;97583.28;5024263;28;20209;-72
2023/11/16 05:42:15;;;;;;;2.80;1.50;;;;;;;12.32;59.57;97572.44;5016271;28;20184;-71
2023/11/16 05:44:41;;;;;;;5.97;2.23;;;;;;;12.32;59.55;97573.28;5023850;28;20180;-71
2023/11/16 05:47:06;;;;;;;6.40;1.43;;;;;;;12.31;59.12;97570.78;5024929;28;20184;-71
2023/11/16 05:49:32;;;;;;;8.93;1.90;;;;;;;12.34;59.03;97570.50;5018335;28;20200;-70
2023/11/16 05:51:58;;;;;;;5.57;1.83;;;;;;;12.35;59.16;97567.69;5021852;28;20187;-70
2023/11/16 05:54:23;;;;;;;3.87;1.57;;;;;;;12.40;59.06;97559.38;5027293;28;20187;-71
2023/11/16 05:56:50;;;;;;;5.30;1.80;;;;;;;12.40;58.84;97557.56;5026420;28;20230;-69
2023/11/16 05:59:16;;;;;;;7.77;1.90;;;;;;;12.40;58.89;97543.59;5027630;28;20311;-69
2023/11/16 06:01:45;;;;;;;3.57;1.80;;;;;;;12.39;58.75;97536.69;5024096;28;20419;-69
2023/11/16 06:04:11;;;;;;;5.87;1.83;;;;;;;12.38;59.04;97530.59;5022251;28;20179;-72
2023/11/16 06:06:37;;;;;;;6.10;2.00;;;;;;;12.36;58.91;97519.41;5026654;28;20827;-70
2023/11/16 06:09:03;;;;;;;7.63;2.17;;;;;;;12.38;58.69;97514.84;5026825;28;20188;-69
2023/11/16 06:11:29;;;;;;;5.90;1.87;;;;;;;12.36;58.62;97516.78;5028256;28;20242;-70
2023/11/16 06:13:58;;;;;;;4.20;1.50;;;;;;;12.35;58.85;97512.50;5009661;28;20807;-70
2023/11/16 06:16:24;;;;;;;7.93;1.63;;;;;;;12.35;58.49;97509.88;5021848;28;20180;-71
2023/11/16 06:18:53;;;;;;;5.40;1.80;;;;;;;12.39;58.72;97515.69;5027742;28;20488;-71
2023/11/16 06:21:19;;;;;;;3.13;1.50;;;;;;;12.38;58.26;97522.72;5019498;28;20876;-69
2023/11/16 06:23:44;;;;;;;2.97;1.43;;;;;;;12.35;58.27;97514.31;5026997;28;20422;-70
2023/11/16 06:26:10;;;;;;;5.63;2.00;;;;;;;12.40;57.95;97512.88;5024400;28;20428;-72
2023/11/16 06:28:35;;;;;;;6.07;1.40;;;;;;;12.37;58.39;97517.63;5018936;28;20182;-69
2023/11/16 06:31:01;;;;;;;6.33;1.63;;;;;;;12.38;58.41;97514.84;5027433;28;20203;-71
2023/11/16 06:33:27;;;;;;;5.93;1.80;;;;;;;12.41;57.93;97517.16;4989555;28;20654;-70
2023/11/16 06:35:53;;;;;;;4.60;1.87;;;;;;;12.43;58.19;97517.81;5015894;28;20437;-70
2023/11/16 06:38:19;;;;;;;3.60;1.77;;;;;;;12.42;58.34;97516.19;5026464;28;20203;-72
2023/11/16 06:40:45;;;;;;;3.93;1.83;;;;;;;12.42;57.85;97513.56;5011052;28;20191;-69
2023/11/16 06:43:12;;;;;;;3.40;1.83;;;;;;;12.44;58.18;97503.72;5027619;28;20519;-70
2023/11/16 06:45:40;;;;;;;4.00;1.53;;;;;;;12.46;57.91;97502.72;5031711;28;20411;-69
2023/11/16 06:48:09;;;;;;;7.50;2.00;;;;;;;12.44;57.95;97508.13;5031314;28;20916;-70
2023/11/16 06:50:36;;;;;;;9.07;2.20;;;;;;;12.46;57.87;97502.72;5028346;28;20845;-69
2023/11/16 06:53:05;;;;;;;5.50;1.77;;;;;;;12.49;57.59;97497.13;5014666;28;20425;-71
2023/11/16 06:55:34;;;;;;;8.40;2.13;;;;;;;12.44;57.87;97501.09;5026937;28;20410;-70
2023/11/16 06:58:00;;;;;;;8.03;2.17;;;;;;;12.37;57.70;97500.03;5031475;28;20422;-71
2023/11/16 07:00:26;;;;;;;5.37;1.90;;;;;;;12.36;57.69;97503.66;5013447;28;20520;-71
2023/11/16 07:02:52;;;;;;;3.40;2.13;;;;;;;12.42;57.53;97500.41;4997305;28;20496;-70
2023/11/16 07:05:18;;;;;;;7.03;2.03;;;;;;;12.36;57.90;97494.94;5028750;28;20191;-69
2023/11/16 07:07:45;;;;;;;6.97;1.87;;;;;;;12.39;58.08;97484.13;5011840;28;20192;-69
2023/11/16 07:10:10;;;;;;;8.07;2.23;;;;;;;12.41;57.80;97475.09;5020358;28;20188;-69
2023/11/16 07:12:40;;;;;;;6.17;2.20;;;;;;;12.40;57.93;97481.34;5026682;28;20426;-68
2023/11/16 07:15:06;;;;;;;3.53;2.00;;;;;;;12.43;58.23;97474.94;5023863;28;20192;-70
2023/11/16 07:17:32;;;;;;;4.97;1.87;;;;;;;12.42;57.79;97471.50;5030490;28;21132;-69
2023/11/16 07:19:58;;;;;;;4.60;1.63;;;;;;;12.44;58.09;97466.91;5031081;28;20466;-70
2023/11/16 07:22:25;;;;;;;7.93;2.27;;;;;;;12.48;57.63;97469.19;5013386;28;20952;-69
2023/11/16 07:24:51;;;;;;;7.03;2.60;;;;;;;12.45;57.31;97451.94;5030395;28;20552;-69
2023/11/16 07:27:16;;;;;;;5.43;2.20;;;;;;;12.48;58.03;97445.53;5093251;22;20482;-72
2023/11/16 07:29:45;;;;;;;4.87;2.43;;;;;;;12.51;58.05;97442.59;5016182;28;20457;-70
2023/11/16 07:32:11;;;;;;;7.00;2.23;;;;;;;12.52;57.92;97446.88;5012413;28;20198;-70
2023/11/16 07:34:41;;;;;;;5.80;1.90;;;;;;;12.49;57.56;97457.72;5030235;28;20429;-72
2023/11/16 07:37:06;;;;;;;8.13;3.33;;;;;;;12.53;58.00;97464.31;5029794;28;20580;-71
2023/11/16 07:39:32;;;;;;;9.90;5.43;;;;;;;12.56;58.12;97464.00;5034869;28;20477;-72
2023/11/16 07:41:59;;;;;;;11.93;6.53;;;;;;;12.62;58.53;97458.09;5029964;28;20199;-73
2023/11/16 07:44:25;;;;;;;17.37;6.80;;;;;;;12.70;58.81;97450.25;5019236;28;20370;-72
2023/11/16 07:46:50;;;;;;;8.10;3.17;;;;;;;12.72;58.44;97461.44;5039316;28;20509;-72
2023/11/16 07:49:16;;;;;;;14.50;7.63;;;;;;;12.79;58.31;97460.78;5030708;28;20226;-73
2023/11/16 07:51:43;;;;;;;10.73;5.50;;;;;;;12.69;58.40;97451.22;5030354;28;20187;-72
2023/11/16 07:54:11;;;;;;;9.90;6.10;;;;;;;12.75;58.61;97439.25;5012360;28;20431;-71
2023/11/16 07:56:41;;;;;;;17.93;6.80;;;;;;;12.79;58.35;97430.03;4995816;28;20537;-72
2023/11/16 07:59:14;;;;;;;8.03;3.43;;;;;;;12.82;58.00;97431.53;5029702;28;20486;-72
2023/11/16 08:01:49;;;;;;;8.37;4.10;;;;;;;12.80;58.00;97433.50;5030181;28;20976;-72
2023/11/16 08:04:15;;;;;;;8.70;6.13;;;;;;;12.79;58.20;97427.41;5027763;28;20920;-75
2023/11/16 08:06:40;;;;;;;13.30;7.47;;;;;;;12.84;58.38;97433.00;5029001;28;20430;-73
2023/11/16 08:09:09;;;;;;;11.03;3.83;;;;;;;12.85;57.97;97421.50;5019784;28;20233;-73
2023/11/16 08:11:35;;;;;;;7.20;3.47;;;;;;;12.83;58.31;97417.41;5032037;28;20254;-73
2023/11/16 08:14:06;;;;;;;6.00;2.87;;;;;;;12.84;57.71;97413.78;5032695;28;20437;-72
2023/11/16 08:16:32;;;;;;;8.00;2.57;;;;;;;12.78;57.69;97410.00;5028800;28;20426;-73
2023/11/16 08:18:57;;;;;;;7.80;2.70;;;;;;;12.80;57.57;97401.94;5029307;28;20513;-73
2023/11/16 08:21:23;;;;;;;11.13;5.50;;;;;;;12.74;58.07;97395.50;5026408;28;20429;-73
2023/11/16 08:23:49;;;;;;;9.07;5.97;;;;;;;12.80;58.19;97388.78;5028424;28;20226;-74
2023/11/16 08:26:15;;;;;;;5.20;3.03;;;;;;;12.85;57.90;97384.69;5028993;28;20198;-71
2023/11/16 08:28:44;;;;;;;8.37;3.40;;;;;;;12.78;57.84;97378.44;5044475;28;20426;-74
2023/11/16 08:31:12;;;;;;;5.93;2.57;;;;;;;12.81;57.83;97370.19;5028105;28;20579;-70
2023/11/16 08:33:42;;;;;;;5.60;2.20;;;;;;;12.80;57.42;97370.38;5023329;28;20443;-72
2023/11/16 08:36:11;;;;;;;7.90;2.10;;;;;;;12.82;57.43;97368.41;5027640;28;20473;-72
2023/11/16 08:38:41;;;;;;;8.10;2.30;;;;;;;12.88;57.13;97357.22;5043638;28;20995;-72
2023/11/16 08:41:07;;;;;;;10.60;3.50;;;;;;;12.93;57.14;97354.94;5027886;28;20469;-73
2023/11/16 08:43:33;;;;;;;13.27;3.87;;;;;;;13.02;57.20;97347.88;5028815;28;20961;-74
2023/11/16 08:45:59;;;;;;;12.17;5.20;;;;;;;13.08;57.19;97341.13;5028047;28;20199;-73
2023/11/16 08:48:31;;;;;;;12.57;5.20;;;;;;;13.17;57.28;97345.41;5028317;28;20479;-74
2023/11/16 08:51:03;;;;;;;3.63;2.20;;;;;;;13.17;56.63;97345.41;5027404;28;20215;-73
2023/11/16 08:53:30;;;;;;;7.33;4.17;;;;;;;13.15;57.00;97353.47;5037254;28;20522;-73
2023/11/16 08:55:58;;;;;;;9.70;3.97;;;;;;;13.25;57.10;97347.22;5028166;28;20525;-73
2023/11/16 08:58:25;;;;;;;10.50;3.97;;;;;;;13.21;57.37;97344.91;5028427;28;20549;-73
2023/11/16 09:00:50;;;;;;;7.23;3.37;;;;;;;13.25;56.43;97353.28;5027942;28;20450;-72
2023/11/16 09:03:18;;;;;;;6.20;2.70;;;;;;;13.22;56.51;97351.00;5028299;28;20433;-73
2023/11/16 09:05:44;;;;;;;3.70;2.40;;;;;;;13.26;55.96;97335.69;5022599;28;20195;-73
2023/11/16 09:08:10;;;;;;;7.23;3.20;;;;;;;13.28;55.99;97337.16;5006221;28;20429;-73
2023/11/16 09:10:36;;;;;;;8.40;2.73;;;;;;;13.33;55.81;97340.13;5028240;28;20858;-73
2023/11/16 09:13:01;;;;;;;6.37;3.90;;;;;;;13.35;55.79;97337.31;5024557;28;20481;-73
2023/11/16 09:15:27;;;;;;;9.47;4.63;;;;;;;13.44;55.71;97333.72;5035707;28;20200;-73
2023/11/16 09:17:54;;;;;;;5.60;2.23;;;;;;;13.44;55.10;97327.63;5009979;28;20278;-73
2023/11/16 09:20:22;;;;;;;8.07;2.60;;;;;;;13.50;55.06;97322.53;5028452;28;20216;-73
2023/11/16 09:22:48;;;;;;;4.77;2.23;;;;;;;13.49;54.72;97318.25;5028516;28;20829;-73
2023/11/16 09:25:23;;;;;;;5.67;2.00;;;;;;;13.50;54.92;97319.06;5016252;28;20437;-72
2023/11/16 09:27:50;;;;;;;6.60;2.60;;;;;;;13.52;54.76;97306.53;5027765;28;20449;-72
2023/11/16 09:30:22;;;;;;;6.90;1.97;;;;;;;13.53;54.23;97305.56;5022421;28;20970;-73
2023/11/16 09:32:47;;;;;;;8.70;2.40;;;;;;;13.43;54.28;97307.56;5028985;28;20984;-73
2023/11/16 09:35:15;;;;;;;7.23;2.70;;;;;;;13.49;54.53;97296.34;5028850;28;20548;-72
2023/11/16 09:37:45;;;;;;;7.17;2.20;;;;;;;13.56;54.42;97292.06;5036964;28;20192;-74
2023/11/16 09:40:12;;;;;;;6.87;2.77;;;;;;;13.60;54.13;97284.63;5027536;28;20869;-72
2023/11/16 09:42:39;;;;;;;11.90;4.00;;;;;;;13.61;54.52;97278.38;5028674;28;20430;-72
2023/11/16 09:45:09;;;;;;;5.00;1.73;;;;;;;13.47;53.83;97267.56;5036190;28;20434;-73
2023/11/16 09:47:42;;;;;;;10.30;2.30;;;;;;;13.51;54.24;97262.78;5028869;28;20438;-72
2023/11/16 09:50:08;;;;;;;5.13;2.57;;;;;;;13.46;54.18;97260.66;5028017;28;20968;-72
2023/11/16 09:52:38;;;;;;;6.60;2.40;;;;;;;13.45;54.17;97259.00;5018726;28;20426;-74
2023/11/16 09:55:06;;;;;;;6.23;2.37;;;;;;;13.46;53.76;97247.50;5029120;28;20430;-73
2023/11/16 09:57:34;;;;;;;4.33;1.93;;;;;;;13.45;53.79;97253.75;5042156;28;20454;-74
2023/11/16 10:00:13;;;;;;;6.40;3.20;;;;;;;13.44;53.92;97246.84;5050861;28;20498;-71
2023/11/16 10:02:43;;;;;;;3.43;1.67;;;;;;;13.42;53.71;97227.75;5033320;28;20434;-72
2023/11/16 10:05:27;;;;;;;8.03;3.03;;;;;;;13.44;54.07;97231.03;5029626;28;20430;-72
2023/11/16 10:07:53;;;;;;;5.27;2.10;;;;;;;13.42;53.63;97219.84;5029950;28;20919;-73
2023/11/16 10:10:33;;;;;;;7.47;2.57;;;;;;;13.41;54.12;97212.97;5037120;28;20466;-72
2023/11/16 10:12:59;;;;;;;7.47;2.60;;;;;;;13.43;53.70;97210.16;5031097;28;20443;-71
2023/11/16 10:15:24;;;;;;;4.03;1.93;;;;;;;13.35;53.86;97196.03;5027690;28;20439;-72
2023/11/16 10:17:50;;;;;;;8.60;2.00;;;;;;;13.30;53.72;97192.22;5034811;28;20223;-73
2023/11/16 10:20:17;;;;;;;6.27;3.17;;;;;;;13.29;53.73;97188.78;5032196;28;20309;-72
2023/11/16 10:22:47;;;;;;;5.70;2.83;;;;;;;13.25;53.71;97179.59;5031074;28;20446;-72
2023/11/16 10:25:14;;;;;;;7.00;2.60;;;;;;;13.29;54.03;97165.09;5030055;28;20466;-72
2023/11/16 10:27:40;;;;;;;15.70;3.83;;;;;;;13.32;54.18;97159.50;5031403;28;20430;-73
2023/11/16 10:30:06;;;;;;;6.20;1.73;;;;;;;13.34;53.84;97154.91;5046005;28;20458;-72
2023/11/16 10:32:36;;;;;;;6.60;2.13;;;;;;;13.31;54.02;97144.69;5031608;28;20431;-72
2023/11/16 10:35:02;;;;;;;6.80;2.40;;;;;;;13.26;54.19;97139.13;5030757;28;20487;-72
2023/11/16 10:37:28;;;;;;;4.87;2.57;;;;;;;13.29;54.16;97133.53;5031173;28;21165;-72
2023/11/16 10:39:55;;;;;;;10.40;1.80;;;;;;;13.28;54.47;97121.34;5013343;28;20474;-72
2023/11/16 10:42:21;;;;;;;4.07;1.77;;;;;;;13.28;54.33;97116.09;5030852;28;20465;-73
2023/11/16 10:44:51;;;;;;;5.23;1.90;;;;;;;13.13;54.02;97108.09;5031570;28;20995;-73
2023/11/16 10:47:17;;;;;;;5.70;1.87;;;;;;;13.21;54.17;97104.63;5032238;28;20192;-72
2023/11/16 10:49:42;;;;;;;6.60;1.77;;;;;;;13.17;54.05;97098.03;5013426;28;20508;-72
2023/11/16 10:52:14;;;;;;;7.87;1.80;;;;;;;13.01;54.85;97078.69;5040572;28;20451;-73
2023/11/16 10:54:44;;;;;;;4.73;1.83;;;;;;;13.11;54.74;97072.41;5018934;28;20279;-73
2023/11/16 10:57:13;;;;;;;6.23;1.80;;;;;;;13.18;54.67;97065.47;5012919;28;20442;-73
2023/11/16 10:59:46;;;;;;;4.10;2.30;;;;;;;13.18;54.29;97049.69;5021506;28;20462;-73
2023/11/16 11:02:13;;;;;;;8.03;2.23;;;;;;;13.24;53.87;97046.34;5013297;28;20803;-70
2023/11/16 11:04:41;;;;;;;8.87;2.60;;;;;;;13.30;53.99;97029.88;5011834;28;20997;-70
2023/11/16 11:07:08;;;;;;;3.87;2.03;;;;;;;13.30;53.60;97029.06;5029445;28;20441;-70
2023/11/16 11:09:42;;;;;;;5.70;2.10;;;;;;;13.28;53.96;97018.72;5028436;28;20471;-71
2023/11/16 11:12:13;;;;;;;5.90;2.10;;;;;;;13.26;53.31;97010.16;5033374;28;20522;-71
2023/11/16 11:14:46;;;;;;;7.20;2.17;;;;;;;13.29;53.50;97001.94;5006536;28;20434;-70
2023/11/16 11:17:26;;;;;;;8.63;2.00;;;;;;;13.34;53.61;96994.34;5027537;28;20501;-70
2023/11/16 11:20:08;;;;;;;4.80;2.13;;;;;;;13.35;53.42;96987.25;5013380;28;21025;-70
2023/11/16 11:22:34;;;;;;;6.93;2.20;;;;;;;13.30;53.12;96977.25;5030790;28;20423;-70
2023/11/16 11:24:59;;;;;;;5.30;1.87;;;;;;;13.41;52.89;96967.34;5028457;28;20492;-70
2023/11/16 11:27:25;;;;;;;6.27;1.70;;;;;;;13.48;53.20;96950.66;5029420;28;20198;-70
2023/11/16 11:29:54;;;;;;;5.40;2.50;;;;;;;13.45;52.64;96942.31;5026917;28;20214;-71
2023/11/16 11:32:29;;;;;;;5.77;2.43;;;;;;;13.55;52.75;96942.88;5038795;28;20425;-69
2023/11/16 11:34:57;;;;;;;5.43;2.07;;;;;;;13.61;52.73;96942.16;5030999;28;20488;-69
2023/11/16 11:37:37;;;;;;;4.00;2.20;;;;;;;13.58;52.26;96947.78;5044363;28;20462;-71